Hartness State (Springfield) Airport

About

Name: Hartness State (Springfield) Airport
Identifier:  VSF/KVSF
Serves:  Springfield, Vermont
Owner:  State of Vermont
Public/Private:  Public
Local Time:  26. Jan 23:45 EST
Description: Coordinates: 43°20′37″N 072°31′02″W / 43.34361°N 72.51722°W / 43.34361; -72.51722
Source: Wikipedia

Location

Hartness State (Springfield) Airport

Runways
Identifier Length (m/ft) Surface
5/23 1,676/5,498 Asphalt
11/29 914/3,000 Asphalt

Statistics

Flights Per Day:
0 Flights
Distance: 305km (189mi)
Flights Delayed:
0% (0 Flights/Day Delayed)
Average Delay: 49 minutes

Current Weather

 3 C (Humidity: 64%)
  9kt (16km/h / 10mph) from 270°
  Overcast at 3,400 feet (1,036 meter)
  16km (10 mi.)
 METAR KVSF 270354Z AUTO 27009KT 10SM OVC034 03/M03 A2962 RMK AO2 SLP036 T00331028

Claim Compensation

Claim compensation for your flight delay or cancellation
Flight delays happen, but that doesn’t mean you have to accept them. You may be entitled to as much as €600/$700 in compensation if your flight has been delayed, canceled or overbooked within the last three years.

Current Delays

Departures

N/A

Arrivals

N/A

Destinations

Map

Top Destinations

Airport Flights
per week
Seats
per week
  Teterboro (TEB) 0 - 0 0

Airlines & Planes

Top Airlines

Airline Flights
per day
Seats
per day
Gama Aviation 0 -

Top Models

model Flights seats
Beech B300 Super King Air 350 0.0/day - 0